Aviation Digital Data Service (ADDS)

Output produced by METARs form (0936 UTC 17 April 2014)
found at http://www.aviationweather.gov/adds/metars/
 
METAR text: KCCU 170916Z AUTO 22006KT 10SM SCT034 M05/M11 A3010 RMK AO2
Conditions at: KCCU (RED CLIFF PASS , CO, US) observed 0916 UTC 17 April 2014
Temperature: -5.0°C (23°F)
Dewpoint: -11.0°C (12°F) [RH = 63%]
Pressure (altimeter): 30.10 inches Hg (1019.4 mb)
Winds: from the SW (220 degrees) at 7 MPH (6 knots; 3.1 m/s)
Visibility: 10 or more miles (16+ km)
Ceiling: at least 12,000 feet AGL
Clouds: scattered clouds at 3400 feet AGL
Weather: automated observation with no human augmentation;
there may or may not be significant weather present at this time